sensor_id;sensor_type;location;lat;lon;timestamp;pressure;altitude;pressure_sealevel;temperature;humidity
5691;BME280;2870;42.680;23.364;2023-04-19T00:01:01;94748.28;;;10.65;91.16
5691;BME280;2870;42.680;23.364;2023-04-19T00:03:28;94749.00;;;10.73;91.18
5691;BME280;2870;42.680;23.364;2023-04-19T00:05:55;94754.84;;;10.67;92.83
5691;BME280;2870;42.680;23.364;2023-04-19T00:08:23;94747.59;;;10.56;92.44
5691;BME280;2870;42.680;23.364;2023-04-19T00:10:50;94748.28;;;10.65;92.00
5691;BME280;2870;42.680;23.364;2023-04-19T00:13:17;94725.91;;;10.57;92.70
5691;BME280;2870;42.680;23.364;2023-04-19T00:15:44;94739.63;;;10.78;93.27
5691;BME280;2870;42.680;23.364;2023-04-19T00:18:12;94738.91;;;10.70;92.77
5691;BME280;2870;42.680;23.364;2023-04-19T00:20:39;94736.63;;;10.76;92.61
5691;BME280;2870;42.680;23.364;2023-04-19T00:23:05;94739.84;;;10.72;93.38
5691;BME280;2870;42.680;23.364;2023-04-19T00:25:32;94738.47;;;10.81;90.90
5691;BME280;2870;42.680;23.364;2023-04-19T00:28:00;94733.16;;;10.93;91.13
5691;BME280;2870;42.680;23.364;2023-04-19T00:30:27;94680.22;;;10.39;90.24
5691;BME280;2870;42.680;23.364;2023-04-19T00:32:54;94724.59;;;10.58;91.02
5691;BME280;2870;42.680;23.364;2023-04-19T00:35:22;94733.94;;;10.53;90.83
5691;BME280;2870;42.680;23.364;2023-04-19T00:37:48;94724.31;;;10.71;90.73
5691;BME280;2870;42.680;23.364;2023-04-19T00:40:15;94735.53;;;10.71;91.08
5691;BME280;2870;42.680;23.364;2023-04-19T00:42:42;94717.25;;;10.63;90.82
5691;BME280;2870;42.680;23.364;2023-04-19T00:45:10;94728.88;;;10.59;90.44
5691;BME280;2870;42.680;23.364;2023-04-19T00:47:38;94723.75;;;10.73;92.75
5691;BME280;2870;42.680;23.364;2023-04-19T00:50:07;94727.09;;;10.71;91.88
5691;BME280;2870;42.680;23.364;2023-04-19T00:52:35;94718.59;;;10.86;92.25
5691;BME280;2870;42.680;23.364;2023-04-19T00:55:03;94715.38;;;10.65;91.10
5691;BME280;2870;42.680;23.364;2023-04-19T00:57:31;94713.13;;;10.64;91.59
5691;BME280;2870;42.680;23.364;2023-04-19T00:59:58;94719.13;;;10.60;90.87
5691;BME280;2870;42.680;23.364;2023-04-19T01:02:25;94721.56;;;10.64;91.77
5691;BME280;2870;42.680;23.364;2023-04-19T01:04:53;94714.88;;;10.84;91.84
5691;BME280;2870;42.680;23.364;2023-04-19T01:07:20;94720.44;;;10.92;90.86
5691;BME280;2870;42.680;23.364;2023-04-19T01:09:48;94713.63;;;11.02;88.97
5691;BME280;2870;42.680;23.364;2023-04-19T01:12:15;94709.28;;;10.84;89.00
5691;BME280;2870;42.680;23.364;2023-04-19T01:14:42;94712.19;;;10.69;89.14
5691;BME280;2870;42.680;23.364;2023-04-19T01:17:09;94720.94;;;10.73;91.49
5691;BME280;2870;42.680;23.364;2023-04-19T01:19:37;94717.28;;;10.87;91.19
5691;BME280;2870;42.680;23.364;2023-04-19T01:22:04;94712.53;;;10.73;90.67
5691;BME280;2870;42.680;23.364;2023-04-19T01:24:32;94705.09;;;10.93;90.31
5691;BME280;2870;42.680;23.364;2023-04-19T01:26:59;94719.19;;;10.85;91.65
5691;BME280;2870;42.680;23.364;2023-04-19T01:29:26;94711.78;;;10.97;90.64
5691;BME280;2870;42.680;23.364;2023-04-19T01:31:53;94715.72;;;10.94;90.13
5691;BME280;2870;42.680;23.364;2023-04-19T01:34:20;94706.28;;;10.82;91.25
5691;BME280;2870;42.680;23.364;2023-04-19T01:36:48;94710.16;;;10.61;90.65
5691;BME280;2870;42.680;23.364;2023-04-19T01:39:15;94707.75;;;10.58;90.63
5691;BME280;2870;42.680;23.364;2023-04-19T01:41:44;94711.22;;;10.74;92.45
5691;BME280;2870;42.680;23.364;2023-04-19T01:44:11;94703.16;;;10.45;91.77
5691;BME280;2870;42.680;23.364;2023-04-19T01:46:37;94701.69;;;10.37;92.18
5691;BME280;2870;42.680;23.364;2023-04-19T01:49:07;94705.03;;;10.43;92.25
5691;BME280;2870;42.680;23.364;2023-04-19T01:51:35;94700.03;;;10.66;93.63
5691;BME280;2870;42.680;23.364;2023-04-19T01:54:02;94700.50;;;10.80;92.03
5691;BME280;2870;42.680;23.364;2023-04-19T01:56:29;94705.25;;;10.70;92.38
5691;BME280;2870;42.680;23.364;2023-04-19T01:58:58;94697.63;;;10.87;92.52
5691;BME280;2870;42.680;23.364;2023-04-19T02:01:25;94696.69;;;10.60;92.85
5691;BME280;2870;42.680;23.364;2023-04-19T02:03:52;94691.38;;;10.47;93.95
5691;BME280;2870;42.680;23.364;2023-04-19T02:06:18;94686.78;;;10.34;93.92
5691;BME280;2870;42.680;23.364;2023-04-19T02:08:45;94690.69;;;10.31;94.51
5691;BME280;2870;42.680;23.364;2023-04-19T02:11:12;94690.19;;;10.25;94.03
5691;BME280;2870;42.680;23.364;2023-04-19T02:13:39;94689.78;;;10.21;95.32
5691;BME280;2870;42.680;23.364;2023-04-19T02:16:09;94668.56;;;10.10;95.47
5691;BME280;2870;42.680;23.364;2023-04-19T02:18:36;94688.31;;;10.27;94.97
5691;BME280;2870;42.680;23.364;2023-04-19T02:21:05;94688.44;;;10.37;95.54
5691;BME280;2870;42.680;23.364;2023-04-19T02:23:32;94684.66;;;10.02;96.06
5691;BME280;2870;42.680;23.364;2023-04-19T02:25:59;94678.84;;;10.07;95.87
5691;BME280;2870;42.680;23.364;2023-04-19T02:28:27;94683.75;;;9.99;96.12
5691;BME280;2870;42.680;23.364;2023-04-19T02:30:54;94691.94;;;10.45;95.96
5691;BME280;2870;42.680;23.364;2023-04-19T02:33:22;94688.41;;;10.70;93.81
5691;BME280;2870;42.680;23.364;2023-04-19T02:35:49;94686.78;;;10.34;95.05
5691;BME280;2870;42.680;23.364;2023-04-19T02:38:16;94687.91;;;10.64;94.95
5691;BME280;2870;42.680;23.364;2023-04-19T02:40:42;94687.41;;;10.09;94.86
5691;BME280;2870;42.680;23.364;2023-04-19T02:43:09;94686.66;;;10.17;95.35
5691;BME280;2870;42.680;23.364;2023-04-19T02:45:36;94694.16;;;10.06;96.03
5691;BME280;2870;42.680;23.364;2023-04-19T02:48:03;94686.25;;;9.72;97.11
5691;BME280;2870;42.680;23.364;2023-04-19T02:50:32;94690.72;;;9.83;97.28
5691;BME280;2870;42.680;23.364;2023-04-19T02:52:58;94691.44;;;9.83;97.06
5691;BME280;2870;42.680;23.364;2023-04-19T02:55:25;94688.41;;;10.04;97.03
5691;BME280;2870;42.680;23.364;2023-04-19T02:57:52;94687.69;;;9.89;97.01
5691;BME280;2870;42.680;23.364;2023-04-19T03:00:19;94696.63;;;9.95;96.33
5691;BME280;2870;42.680;23.364;2023-04-19T03:02:45;94694.50;;;9.70;97.00
5691;BME280;2870;42.680;23.364;2023-04-19T03:05:12;94682.72;;;9.72;97.32
5691;BME280;2870;42.680;23.364;2023-04-19T03:07:40;94682.66;;;9.87;97.01
5691;BME280;2870;42.680;23.364;2023-04-19T03:10:08;94681.38;;;9.80;96.99
5691;BME280;2870;42.680;23.364;2023-04-19T03:12:35;94680.44;;;10.26;96.05
5691;BME280;2870;42.680;23.364;2023-04-19T03:15:03;94678.31;;;10.01;95.32
5691;BME280;2870;42.680;23.364;2023-04-19T03:17:30;94688.44;;;9.89;95.97
5691;BME280;2870;42.680;23.364;2023-04-19T03:19:57;94689.44;;;9.76;96.62
5691;BME280;2870;42.680;23.364;2023-04-19T03:22:24;94689.59;;;9.78;97.09
5691;BME280;2870;42.680;23.364;2023-04-19T03:24:52;94685.31;;;9.70;97.62
5691;BME280;2870;42.680;23.364;2023-04-19T03:27:20;94681.81;;;9.62;98.04
5691;BME280;2870;42.680;23.364;2023-04-19T03:29:46;94690.03;;;9.60;98.02
5691;BME280;2870;42.680;23.364;2023-04-19T03:32:13;94678.44;;;9.71;97.98
5691;BME280;2870;42.680;23.364;2023-04-19T03:34:40;94688.13;;;9.70;97.70
5691;BME280;2870;42.680;23.364;2023-04-19T03:37:07;94693.22;;;9.56;98.76
5691;BME280;2870;42.680;23.364;2023-04-19T03:39:34;94693.50;;;9.75;98.02
5691;BME280;2870;42.680;23.364;2023-04-19T03:42:02;94692.97;;;9.69;97.42
5691;BME280;2870;42.680;23.364;2023-04-19T03:44:30;94686.03;;;9.86;97.73
5691;BME280;2870;42.680;23.364;2023-04-19T03:46:57;94684.78;;;9.71;97.05
5691;BME280;2870;42.680;23.364;2023-04-19T03:49:24;94686.13;;;9.55;97.84
5691;BME280;2870;42.680;23.364;2023-04-19T03:51:51;94678.09;;;9.51;97.79
5691;BME280;2870;42.680;23.364;2023-04-19T03:54:18;94679.25;;;9.41;98.21
5691;BME280;2870;42.680;23.364;2023-04-19T03:56:45;94678.47;;;9.55;98.32
5691;BME280;2870;42.680;23.364;2023-04-19T03:59:13;94684.25;;;9.57;98.25
5691;BME280;2870;42.680;23.364;2023-04-19T04:01:39;94683.63;;;9.74;98.67
5691;BME280;2870;42.680;23.364;2023-04-19T04:04:07;94683.63;;;9.82;97.74
5691;BME280;2870;42.680;23.364;2023-04-19T04:06:34;94681.94;;;9.79;97.08
5691;BME280;2870;42.680;23.364;2023-04-19T04:09:00;94685.72;;;9.66;97.08
5691;BME280;2870;42.680;23.364;2023-04-19T04:11:28;94689.56;;;9.86;95.57
5691;BME280;2870;42.680;23.364;2023-04-19T04:13:55;94695.75;;;9.85;97.03
5691;BME280;2870;42.680;23.364;2023-04-19T04:16:23;94691.13;;;9.72;96.51
5691;BME280;2870;42.680;23.364;2023-04-19T04:18:50;94691.88;;;9.72;97.61
5691;BME280;2870;42.680;23.364;2023-04-19T04:21:17;94700.78;;;9.86;97.47
5691;BME280;2870;42.680;23.364;2023-04-19T04:23:44;94702.63;;;9.91;97.56
5691;BME280;2870;42.680;23.364;2023-04-19T04:26:11;94689.56;;;9.86;96.59
5691;BME280;2870;42.680;23.364;2023-04-19T04:28:38;94694.97;;;9.92;97.82
5691;BME280;2870;42.680;23.364;2023-04-19T04:31:05;94696.88;;;9.81;96.57
5691;BME280;2870;42.680;23.364;2023-04-19T04:33:33;94696.97;;;10.06;96.61
5691;BME280;2870;42.680;23.364;2023-04-19T04:36:00;94703.69;;;10.03;95.87
5691;BME280;2870;42.680;23.364;2023-04-19T04:38:28;94698.50;;;9.92;95.93
5691;BME280;2870;42.680;23.364;2023-04-19T04:40:55;94696.69;;;9.87;96.39
5691;BME280;2870;42.680;23.364;2023-04-19T04:43:25;94692.81;;;10.15;95.56
5691;BME280;2870;42.680;23.364;2023-04-19T04:45:53;94699.19;;;10.16;95.12
5691;BME280;2870;42.680;23.364;2023-04-19T04:48:22;94703.03;;;9.88;95.20
5691;BME280;2870;42.680;23.364;2023-04-19T04:50:50;94707.63;;;10.00;95.48
5691;BME280;2870;42.680;23.364;2023-04-19T04:53:17;94706.50;;;10.03;94.51
5691;BME280;2870;42.680;23.364;2023-04-19T04:55:44;94709.00;;;9.84;95.22
5691;BME280;2870;42.680;23.364;2023-04-19T04:58:11;94707.44;;;10.06;95.94
5691;BME280;2870;42.680;23.364;2023-04-19T05:00:38;94711.97;;;9.86;95.71
5691;BME280;2870;42.680;23.364;2023-04-19T05:03:04;94708.88;;;10.15;96.12
5691;BME280;2870;42.680;23.364;2023-04-19T05:05:32;94718.38;;;10.67;92.82
5691;BME280;2870;42.680;23.364;2023-04-19T05:08:00;94712.00;;;10.67;93.34
5691;BME280;2870;42.680;23.364;2023-04-19T05:10:27;94666.81;;;10.22;92.43
5691;BME280;2870;42.680;23.364;2023-04-19T05:12:54;94696.72;;;10.20;93.31
5691;BME280;2870;42.680;23.364;2023-04-19T05:15:21;94719.06;;;10.75;91.71
5691;BME280;2870;42.680;23.364;2023-04-19T05:17:48;94715.25;;;10.07;93.93
5691;BME280;2870;42.680;23.364;2023-04-19T05:20:15;94708.84;;;10.22;94.47
5691;BME280;2870;42.680;23.364;2023-04-19T05:22:42;94714.16;;;10.11;95.21
5691;BME280;2870;42.680;23.364;2023-04-19T05:25:11;94711.31;;;10.18;95.41
5691;BME280;2870;42.680;23.364;2023-04-19T05:27:39;94718.72;;;10.31;93.91
5691;BME280;2870;42.680;23.364;2023-04-19T05:30:06;94717.13;;;10.85;91.27
5691;BME280;2870;42.680;23.364;2023-04-19T05:32:33;94716.97;;;10.43;93.36
5691;BME280;2870;42.680;23.364;2023-04-19T05:35:00;94719.34;;;10.14;94.02
5691;BME280;2870;42.680;23.364;2023-04-19T05:37:27;94721.84;;;9.95;95.46
5691;BME280;2870;42.680;23.364;2023-04-19T05:39:54;94719.00;;;10.02;95.44
5691;BME280;2870;42.680;23.364;2023-04-19T05:42:23;94720.13;;;10.07;94.42
5691;BME280;2870;42.680;23.364;2023-04-19T05:44:49;94718.63;;;10.06;96.71
5691;BME280;2870;42.680;23.364;2023-04-19T05:47:16;94718.31;;;10.75;93.82
5691;BME280;2870;42.680;23.364;2023-04-19T05:49:43;94711.59;;;10.70;92.41
5691;BME280;2870;42.680;23.364;2023-04-19T05:52:09;94724.44;;;11.06;92.14
5691;BME280;2870;42.680;23.364;2023-04-19T05:54:36;94720.34;;;11.07;91.96
5691;BME280;2870;42.680;23.364;2023-04-19T05:57:03;94721.56;;;10.88;88.93
5691;BME280;2870;42.680;23.364;2023-04-19T05:59:32;94719.75;;;10.11;93.57
5691;BME280;2870;42.680;23.364;2023-04-19T06:01:59;94724.34;;;10.64;94.33
5691;BME280;2870;42.680;23.364;2023-04-19T06:04:26;94725.88;;;10.17;93.42
5691;BME280;2870;42.680;23.364;2023-04-19T06:06:53;94721.66;;;10.00;95.23
5691;BME280;2870;42.680;23.364;2023-04-19T06:09:20;94724.63;;;10.02;95.58
5691;BME280;2870;42.680;23.364;2023-04-19T06:11:47;94722.56;;;10.11;95.73
5691;BME280;2870;42.680;23.364;2023-04-19T06:14:14;94723.91;;;10.42;93.88
5691;BME280;2870;42.680;23.364;2023-04-19T06:16:42;94724.59;;;10.83;94.59
5691;BME280;2870;42.680;23.364;2023-04-19T06:19:09;94727.47;;;10.75;92.59
5691;BME280;2870;42.680;23.364;2023-04-19T06:21:35;94727.59;;;11.35;89.96
5691;BME280;2870;42.680;23.364;2023-04-19T06:24:04;94715.97;;;11.13;89.75
5691;BME280;2870;42.680;23.364;2023-04-19T06:26:31;94728.53;;;11.12;90.11
5691;BME280;2870;42.680;23.364;2023-04-19T06:28:58;94727.91;;;10.89;90.14
5691;BME280;2870;42.680;23.364;2023-04-19T06:31:25;94722.56;;;10.51;92.30
5691;BME280;2870;42.680;23.364;2023-04-19T06:33:53;94723.66;;;10.55;92.49
5691;BME280;2870;42.680;23.364;2023-04-19T06:36:20;94726.13;;;10.51;93.55
5691;BME280;2870;42.680;23.364;2023-04-19T06:38:47;94728.78;;;10.99;91.93
5691;BME280;2870;42.680;23.364;2023-04-19T06:41:14;94729.59;;;10.92;90.96
5691;BME280;2870;42.680;23.364;2023-04-19T06:43:41;94722.28;;;11.39;91.25
5691;BME280;2870;42.680;23.364;2023-04-19T06:46:09;94735.34;;;12.04;86.85
5691;BME280;2870;42.680;23.364;2023-04-19T06:48:38;94732.84;;;11.31;88.60
5691;BME280;2870;42.680;23.364;2023-04-19T06:51:06;94732.75;;;11.63;88.52
5691;BME280;2870;42.680;23.364;2023-04-19T06:53:33;94736.00;;;11.94;88.61
5691;BME280;2870;42.680;23.364;2023-04-19T06:56:02;94738.03;;;12.46;85.29
5691;BME280;2870;42.680;23.364;2023-04-19T06:58:30;94739.19;;;12.97;81.14
5691;BME280;2870;42.680;23.364;2023-04-19T07:00:58;94753.16;;;12.51;81.63
5691;BME280;2870;42.680;23.364;2023-04-19T07:03:25;94741.50;;;11.67;83.95
5691;BME280;2870;42.680;23.364;2023-04-19T07:05:52;94746.06;;;11.63;85.61
5691;BME280;2870;42.680;23.364;2023-04-19T07:08:22;94744.50;;;12.39;83.18
5691;BME280;2870;42.680;23.364;2023-04-19T07:10:48;94747.59;;;12.87;82.58
5691;BME280;2870;42.680;23.364;2023-04-19T07:13:15;94748.72;;;12.74;80.86
5691;BME280;2870;42.680;23.364;2023-04-19T07:15:42;94740.78;;;12.02;82.99
5691;BME280;2870;42.680;23.364;2023-04-19T07:18:10;94747.81;;;11.76;84.60
5691;BME280;2870;42.680;23.364;2023-04-19T07:20:39;94750.59;;;12.45;84.12
5691;BME280;2870;42.680;23.364;2023-04-19T07:23:08;94745.84;;;12.65;83.13
5691;BME280;2870;42.680;23.364;2023-04-19T07:25:37;94739.97;;;12.26;82.99
5691;BME280;2870;42.680;23.364;2023-04-19T07:28:04;94746.56;;;12.38;82.44
5691;BME280;2870;42.680;23.364;2023-04-19T07:30:30;94742.44;;;12.39;81.93
5691;BME280;2870;42.680;23.364;2023-04-19T07:32:58;94748.72;;;12.30;82.62
5691;BME280;2870;42.680;23.364;2023-04-19T07:35:24;94748.28;;;13.05;81.20
5691;BME280;2870;42.680;23.364;2023-04-19T07:37:51;94754.03;;;13.24;81.00
5691;BME280;2870;42.680;23.364;2023-04-19T07:40:18;94753.75;;;12.49;80.17
5691;BME280;2870;42.680;23.364;2023-04-19T07:42:46;94751.59;;;13.11;80.42
5691;BME280;2870;42.680;23.364;2023-04-19T07:45:13;94753.94;;;12.34;82.05
5691;BME280;2870;42.680;23.364;2023-04-19T07:47:40;94754.50;;;12.50;82.13
5691;BME280;2870;42.680;23.364;2023-04-19T07:50:08;94750.63;;;12.99;81.03
5691;BME280;2870;42.680;23.364;2023-04-19T07:52:35;94757.16;;;12.74;79.89
5691;BME280;2870;42.680;23.364;2023-04-19T07:55:01;94749.19;;;12.54;80.52
5691;BME280;2870;42.680;23.364;2023-04-19T07:57:28;94751.38;;;12.11;82.27
5691;BME280;2870;42.680;23.364;2023-04-19T07:59:57;94751.66;;;12.94;81.85
5691;BME280;2870;42.680;23.364;2023-04-19T08:02:25;94755.25;;;12.77;79.30
5691;BME280;2870;42.680;23.364;2023-04-19T08:04:52;94746.16;;;12.69;80.48
5691;BME280;2870;42.680;23.364;2023-04-19T08:07:19;94745.38;;;12.86;78.90
5691;BME280;2870;42.680;23.364;2023-04-19T08:09:47;94754.56;;;12.59;79.45
5691;BME280;2870;42.680;23.364;2023-04-19T08:12:14;94711.38;;;12.03;80.96
5691;BME280;2870;42.680;23.364;2023-04-19T08:14:43;94753.31;;;12.53;80.28
5691;BME280;2870;42.680;23.364;2023-04-19T08:17:12;94749.41;;;12.92;78.08
5691;BME280;2870;42.680;23.364;2023-04-19T08:19:40;94748.81;;;12.23;80.45
5691;BME280;2870;42.680;23.364;2023-04-19T08:22:07;94748.78;;;12.84;82.61
5691;BME280;2870;42.680;23.364;2023-04-19T08:24:34;94756.06;;;13.51;77.90
5691;BME280;2870;42.680;23.364;2023-04-19T08:27:01;94754.88;;;12.90;77.99
5691;BME280;2870;42.680;23.364;2023-04-19T08:29:27;94758.56;;;12.83;79.00
5691;BME280;2870;42.680;23.364;2023-04-19T08:31:54;94751.41;;;13.09;78.69
5691;BME280;2870;42.680;23.364;2023-04-19T08:34:22;94748.63;;;13.46;75.27
5691;BME280;2870;42.680;23.364;2023-04-19T08:36:49;94740.94;;;13.56;75.50
5691;BME280;2870;42.680;23.364;2023-04-19T08:39:16;94752.88;;;13.10;78.08
5691;BME280;2870;42.680;23.364;2023-04-19T08:41:43;94742.88;;;13.63;76.77
5691;BME280;2870;42.680;23.364;2023-04-19T08:44:10;94738.81;;;13.10;75.27
5691;BME280;2870;42.680;23.364;2023-04-19T08:46:37;94745.13;;;12.47;78.49
5691;BME280;2870;42.680;23.364;2023-04-19T08:49:04;94736.13;;;12.49;79.29
5691;BME280;2870;42.680;23.364;2023-04-19T08:51:33;94732.75;;;13.14;77.20
5691;BME280;2870;42.680;23.364;2023-04-19T08:54:03;94735.59;;;13.60;76.50
5691;BME280;2870;42.680;23.364;2023-04-19T08:56:30;94727.72;;;13.12;75.47
5691;BME280;2870;42.680;23.364;2023-04-19T08:58:57;94728.78;;;13.63;73.51
5691;BME280;2870;42.680;23.364;2023-04-19T09:01:24;94729.72;;;13.95;72.43
5691;BME280;2870;42.680;23.364;2023-04-19T09:03:50;94728.38;;;13.86;75.49
5691;BME280;2870;42.680;23.364;2023-04-19T09:06:17;94733.44;;;14.17;72.21
5691;BME280;2870;42.680;23.364;2023-04-19T09:08:45;94730.00;;;13.89;72.68
5691;BME280;2870;42.680;23.364;2023-04-19T09:11:12;94726.09;;;13.46;74.26
5691;BME280;2870;42.680;23.364;2023-04-19T09:13:39;94724.16;;;13.58;73.79
5691;BME280;2870;42.680;23.364;2023-04-19T09:16:22;94723.16;;;14.41;71.55
5691;BME280;2870;42.680;23.364;2023-04-19T09:18:56;94725.72;;;13.98;71.77
5691;BME280;2870;42.680;23.364;2023-04-19T09:21:27;94694.59;;;13.30;72.53
5691;BME280;2870;42.680;23.364;2023-04-19T09:23:56;94721.38;;;13.77;72.88
5691;BME280;2870;42.680;23.364;2023-04-19T09:26:23;94731.47;;;14.77;70.77
5691;BME280;2870;42.680;23.364;2023-04-19T09:28:57;94716.38;;;14.24;69.32
5691;BME280;2870;42.680;23.364;2023-04-19T09:31:24;94724.63;;;13.18;71.49
5691;BME280;2870;42.680;23.364;2023-04-19T09:33:53;94723.25;;;13.56;72.43
5691;BME280;2870;42.680;23.364;2023-04-19T09:36:27;94719.50;;;13.90;70.79
5691;BME280;2870;42.680;23.364;2023-04-19T09:38:57;94715.69;;;15.56;69.81
5691;BME280;2870;42.680;23.364;2023-04-19T09:41:24;94724.81;;;16.19;62.39
5691;BME280;2870;42.680;23.364;2023-04-19T09:43:52;94727.47;;;17.04;61.19
5691;BME280;2870;42.680;23.364;2023-04-19T09:46:32;94712.66;;;16.94;58.74
5691;BME280;2870;42.680;23.364;2023-04-19T09:49:15;94714.09;;;16.72;60.93
5691;BME280;2870;42.680;23.364;2023-04-19T09:51:45;94710.75;;;18.53;57.17
5691;BME280;2870;42.680;23.364;2023-04-19T09:54:14;94710.09;;;17.57;57.52
5691;BME280;2870;42.680;23.364;2023-04-19T09:56:42;94693.91;;;18.69;56.66
5691;BME280;2870;42.680;23.364;2023-04-19T09:59:09;94701.25;;;19.25;54.25
5691;BME280;2870;42.680;23.364;2023-04-19T10:01:38;94697.88;;;17.89;54.85
5691;BME280;2870;42.680;23.364;2023-04-19T10:04:06;94698.41;;;18.86;53.53
5691;BME280;2870;42.680;23.364;2023-04-19T10:06:34;94680.72;;;17.99;56.75
5691;BME280;2870;42.680;23.364;2023-04-19T10:09:02;94682.41;;;18.41;55.91
5691;BME280;2870;42.680;23.364;2023-04-19T10:11:32;94697.50;;;19.09;53.60
5691;BME280;2870;42.680;23.364;2023-04-19T10:14:04;94690.28;;;18.17;54.46
5691;BME280;2870;42.680;23.364;2023-04-19T10:16:31;94690.44;;;18.08;55.49
5691;BME280;2870;42.680;23.364;2023-04-19T10:18:59;94697.66;;;19.38;52.67
5691;BME280;2870;42.680;23.364;2023-04-19T10:21:28;94683.88;;;18.42;53.77
5691;BME280;2870;42.680;23.364;2023-04-19T10:23:56;94684.22;;;17.15;56.19
5691;BME280;2870;42.680;23.364;2023-04-19T10:26:24;94679.53;;;17.55;56.24
5691;BME280;2870;42.680;23.364;2023-04-19T10:28:53;94679.53;;;17.79;55.08
5691;BME280;2870;42.680;23.364;2023-04-19T10:31:21;94675.22;;;17.66;56.65
5691;BME280;2870;42.680;23.364;2023-04-19T10:33:49;94668.94;;;17.56;57.59
5691;BME280;2870;42.680;23.364;2023-04-19T10:36:17;94673.00;;;18.50;55.33
5691;BME280;2870;42.680;23.364;2023-04-19T10:38:45;94674.22;;;18.22;55.83
5691;BME280;2870;42.680;23.364;2023-04-19T10:41:13;94668.63;;;18.61;53.02
5691;BME280;2870;42.680;23.364;2023-04-19T10:43:42;94667.72;;;18.08;55.32
5691;BME280;2870;42.680;23.364;2023-04-19T10:48:57;94663.97;;;17.68;53.48
5691;BME280;2870;42.680;23.364;2023-04-19T10:51:26;94653.19;;;18.01;56.16
5691;BME280;2870;42.680;23.364;2023-04-19T10:53:57;94661.63;;;18.50;53.13
5691;BME280;2870;42.680;23.364;2023-04-19T10:56:55;94658.03;;;18.24;55.19
5691;BME280;2870;42.680;23.364;2023-04-19T10:59:23;94651.88;;;18.28;51.71
5691;BME280;2870;42.680;23.364;2023-04-19T11:01:53;94651.22;;;17.08;54.55
5691;BME280;2870;42.680;23.364;2023-04-19T11:04:22;94639.25;;;16.86;58.36
5691;BME280;2870;42.680;23.364;2023-04-19T11:06:59;94634.06;;;17.30;54.91
5691;BME280;2870;42.680;23.364;2023-04-19T11:09:28;94640.50;;;17.30;54.10
5691;BME280;2870;42.680;23.364;2023-04-19T11:12:00;94640.78;;;18.20;53.90
5691;BME280;2870;42.680;23.364;2023-04-19T11:14:30;94640.31;;;17.75;53.11
5691;BME280;2870;42.680;23.364;2023-04-19T11:17:02;94639.66;;;18.51;52.90
5691;BME280;2870;42.680;23.364;2023-04-19T11:19:29;94648.09;;;18.37;50.32
5691;BME280;2870;42.680;23.364;2023-04-19T11:21:57;94647.59;;;18.41;50.91
5691;BME280;2870;42.680;23.364;2023-04-19T11:24:25;94631.59;;;17.24;51.69
5691;BME280;2870;42.680;23.364;2023-04-19T11:26:54;94636.34;;;17.68;52.70
5691;BME280;2870;42.680;23.364;2023-04-19T11:29:21;94636.47;;;17.82;51.64
5691;BME280;2870;42.680;23.364;2023-04-19T11:31:48;94637.28;;;17.12;52.38
5691;BME280;2870;42.680;23.364;2023-04-19T11:34:21;94629.94;;;17.68;52.32
5691;BME280;2870;42.680;23.364;2023-04-19T11:36:49;94632.03;;;17.79;50.96
5691;BME280;2870;42.680;23.364;2023-04-19T11:39:16;94626.75;;;18.11;50.79
5691;BME280;2870;42.680;23.364;2023-04-19T11:41:44;94621.53;;;17.93;51.81
5691;BME280;2870;42.680;23.364;2023-04-19T11:44:13;94637.94;;;18.46;50.17
5691;BME280;2870;42.680;23.364;2023-04-19T11:46:40;94625.31;;;18.49;49.26
5691;BME280;2870;42.680;23.364;2023-04-19T11:49:07;94631.66;;;18.73;49.08
5691;BME280;2870;42.680;23.364;2023-04-19T11:51:40;94631.50;;;18.96;47.54
5691;BME280;2870;42.680;23.364;2023-04-19T11:54:12;94630.03;;;18.95;45.81
5691;BME280;2870;42.680;23.364;2023-04-19T11:56:56;94616.19;;;17.99;48.01
5691;BME280;2870;42.680;23.364;2023-04-19T11:59:23;94616.31;;;18.27;48.19
5691;BME280;2870;42.680;23.364;2023-04-19T12:01:50;94615.34;;;18.48;47.51
5691;BME280;2870;42.680;23.364;2023-04-19T12:04:18;94609.94;;;17.89;48.41
5691;BME280;2870;42.680;23.364;2023-04-19T12:06:55;94607.34;;;18.19;48.87
5691;BME280;2870;42.680;23.364;2023-04-19T12:09:23;94622.34;;;18.33;48.82
5691;BME280;2870;42.680;23.364;2023-04-19T12:11:50;94616.31;;;18.52;47.92
5691;BME280;2870;42.680;23.364;2023-04-19T12:14:18;94613.09;;;18.72;46.48
5691;BME280;2870;42.680;23.364;2023-04-19T12:17:02;94612.09;;;18.02;52.25
5691;BME280;2870;42.680;23.364;2023-04-19T12:19:34;94613.81;;;17.70;51.79
5691;BME280;2870;42.680;23.364;2023-04-19T12:22:13;94605.97;;;17.34;53.77
5691;BME280;2870;42.680;23.364;2023-04-19T12:24:40;94607.97;;;16.84;54.88
5691;BME280;2870;42.680;23.364;2023-04-19T12:27:07;94602.13;;;16.59;56.11
5691;BME280;2870;42.680;23.364;2023-04-19T12:29:35;94609.16;;;16.58;55.39
5691;BME280;2870;42.680;23.364;2023-04-19T12:32:03;94570.41;;;16.72;55.57
5691;BME280;2870;42.680;23.364;2023-04-19T12:34:30;94596.88;;;17.12;57.14
5691;BME280;2870;42.680;23.364;2023-04-19T12:36:57;94606.72;;;17.22;55.18
5691;BME280;2870;42.680;23.364;2023-04-19T12:39:25;94594.41;;;17.06;54.23
5691;BME280;2870;42.680;23.364;2023-04-19T12:41:53;94590.88;;;16.26;56.09
5691;BME280;2870;42.680;23.364;2023-04-19T12:44:20;94594.72;;;16.54;55.03
5691;BME280;2870;42.680;23.364;2023-04-19T12:46:47;94583.50;;;16.32;55.43
5691;BME280;2870;42.680;23.364;2023-04-19T12:49:16;94592.63;;;16.42;56.42
5691;BME280;2870;42.680;23.364;2023-04-19T12:51:43;94603.31;;;16.32;56.44
5691;BME280;2870;42.680;23.364;2023-04-19T12:54:11;94593.78;;;16.16;56.10
5691;BME280;2870;42.680;23.364;2023-04-19T12:56:40;94592.31;;;15.60;57.86
5691;BME280;2870;42.680;23.364;2023-04-19T12:59:06;94587.53;;;15.84;57.45
5691;BME280;2870;42.680;23.364;2023-04-19T13:01:33;94604.06;;;15.67;58.59
5691;BME280;2870;42.680;23.364;2023-04-19T13:04:00;94615.56;;;15.80;59.86
5691;BME280;2870;42.680;23.364;2023-04-19T13:06:27;94622.69;;;15.38;62.13
5691;BME280;2870;42.680;23.364;2023-04-19T13:08:54;94624.16;;;15.40;64.65
5691;BME280;2870;42.680;23.364;2023-04-19T13:11:20;94626.28;;;15.29;67.29
5691;BME280;2870;42.680;23.364;2023-04-19T13:13:52;94624.53;;;15.24;68.81
5691;BME280;2870;42.680;23.364;2023-04-19T13:16:19;94631.25;;;15.19;63.96
5691;BME280;2870;42.680;23.364;2023-04-19T13:18:47;94639.13;;;14.90;64.62